Time;durP1;ratioP1;P1;durP2;ratioP2;P2;SDS_P1;SDS_P2;PMS_P1;PMS_P2;Temp;Humidity;BMP_temperature;BMP_pressure;BME280_temperature;BME280_humidity;BME280_pressure;Samples;Min_cycle;Max_cycle;Signal;HPM_P1;HPM_P2
2021/12/16 00:02:05;;;;;;;18.25;8.32;;;7.80;99.90;;;;;;5049631;28;20049;-80
2021/12/16 00:07:35;;;;;;;22.40;10.43;;;7.80;99.90;;;;;;5033286;28;20155;-82
2021/12/16 00:10:15;;;;;;;26.38;9.65;;;7.80;99.90;;;;;;5033438;28;20048;-82
2021/12/16 00:34:50;;;;;;;17.48;6.57;;;8.00;99.90;;;;;;5011241;28;20049;-80
2021/12/16 00:37:17;;;;;;;21.67;9.57;;;8.00;99.90;;;;;;5032250;28;20056;-82
2021/12/16 00:39:44;;;;;;;19.00;9.02;;;8.00;99.90;;;;;;5015813;28;20099;-82
2021/12/16 00:42:24;;;;;;;18.95;7.30;;;8.00;99.90;;;;;;5016521;28;20045;-80
2021/12/16 00:45:08;;;;;;;12.63;5.43;;;8.00;99.90;;;;;;5032557;28;20530;-82
2021/12/16 00:50:19;;;;;;;19.50;6.97;;;8.00;99.90;;;;;;5048320;28;20061;-81
2021/12/16 00:55:42;;;;;;;17.90;7.72;;;8.00;99.90;;;;;;5032521;28;20091;-82
2021/12/16 00:58:08;;;;;;;16.20;7.72;;;8.00;99.90;;;;;;5032270;28;20095;-82
2021/12/16 01:00:34;;;;;;;22.15;7.20;;;7.90;99.90;;;;;;5032169;28;20044;-82
2021/12/16 01:33:46;;;;;;;22.67;8.73;;;8.00;99.90;;;;;;5031785;28;20195;-82
2021/12/16 01:49:58;;;;;;;29.70;8.43;;;8.00;99.90;;;;;;4968846;28;20053;-80
2021/12/16 01:55:34;;;;;;;19.25;6.90;;;8.00;99.90;;;;;;5029539;28;20520;-80
2021/12/16 01:58:18;;;;;;;18.55;6.72;;;8.00;99.90;;;;;;5014792;28;20041;-80
2021/12/16 02:03:52;;;;;;;20.40;6.68;;;8.00;99.90;;;;;;5031106;28;20056;-82
2021/12/16 02:09:17;;;;;;;22.17;8.57;;;8.10;99.90;;;;;;5031117;28;20049;-82
2021/12/16 02:31:14;;;;;;;36.33;10.38;;;8.10;99.90;;;;;;5024924;28;20143;-80
2021/12/16 02:34:22;;;;;;;20.85;8.88;;;8.10;99.90;;;;;;5030955;28;20050;-80
2021/12/16 02:36:44;;;;;;;18.25;8.00;;;8.00;99.90;;;;;;5022836;28;20045;-82
2021/12/16 02:39:28;;;;;;;23.15;8.00;;;8.00;99.90;;;;;;5022482;28;20132;-80
2021/12/16 02:42:13;;;;;;;19.88;7.95;;;8.00;99.90;;;;;;5017160;28;20049;-80
2021/12/16 02:48:28;;;;;;;23.98;8.95;;;8.00;99.90;;;;;;5030873;28;20092;-80
2021/12/16 02:50:21;;;;;;;28.00;7.97;;;7.90;99.90;;;;;;5030412;28;20084;-82
2021/12/16 02:52:47;;;;;;;28.27;9.95;;;7.80;99.90;;;;;;5047025;28;20056;-81
2021/12/16 02:55:16;;;;;;;20.48;8.20;;;7.80;99.90;;;;;;5030510;28;20037;-81
2021/12/16 02:57:48;;;;;;;24.17;8.20;;;7.80;99.90;;;;;;5013799;28;20102;-80
2021/12/16 03:00:16;;;;;;;14.70;5.43;;;7.80;99.90;;;;;;5014703;28;20389;-79
2021/12/16 03:02:44;;;;;;;23.45;8.35;;;7.60;99.90;;;;;;5033371;28;20056;-79
2021/12/16 03:05:11;;;;;;;19.92;7.10;;;7.60;99.90;;;;;;5050858;28;20048;-82
2021/12/16 03:07:38;;;;;;;29.08;8.55;;;7.60;99.90;;;;;;5033873;28;20084;-80
2021/12/16 03:20:54;;;;;;;24.80;8.40;;;7.40;99.90;;;;;;5014866;28;20053;-82
2021/12/16 03:26:28;;;;;;;20.83;9.20;;;7.40;99.90;;;;;;5050243;28;20094;-81
2021/12/16 03:34:22;;;;;;;24.90;10.00;;;7.10;99.90;;;;;;5034330;28;20416;-81
2021/12/16 03:39:53;;;;;;;25.92;10.05;;;6.90;99.90;;;;;;5034395;28;20045;-80
2021/12/16 03:42:21;;;;;;;21.83;9.80;;;6.70;99.90;;;;;;5033983;28;20053;-81
2021/12/16 03:45:00;;;;;;;34.15;10.57;;;6.40;99.90;;;;;;5034105;28;20365;-82
2021/12/16 03:47:38;;;;;;;22.75;10.25;;;6.30;99.90;;;;;;5033639;28;20433;-82
2021/12/16 03:50:11;;;;;;;26.65;10.40;;;6.10;99.90;;;;;;5033695;28;20049;-81
2021/12/16 03:52:38;;;;;;;36.05;15.07;;;6.10;99.90;;;;;;5016854;28;20491;-81
2021/12/16 03:55:05;;;;;;;29.30;10.60;;;6.20;99.90;;;;;;5033637;28;20048;-80
2021/12/16 03:57:32;;;;;;;25.55;11.40;;;6.30;99.90;;;;;;5017310;28;20435;-79
2021/12/16 03:59:59;;;;;;;26.60;10.73;;;6.50;99.90;;;;;;5033970;28;20077;-80
2021/12/16 04:02:29;;;;;;;27.30;9.15;;;6.20;99.90;;;;;;5032826;28;20084;-81
2021/12/16 04:04:56;;;;;;;25.02;8.88;;;6.00;99.90;;;;;;5049951;28;20048;-82
2021/12/16 04:07:24;;;;;;;29.83;11.85;;;5.70;99.90;;;;;;5033358;28;20602;-81
2021/12/16 04:09:52;;;;;;;35.25;11.00;;;5.60;99.90;;;;;;5033271;28;20092;-79
2021/12/16 04:12:20;;;;;;;33.25;11.73;;;5.60;99.90;;;;;;5032931;28;20116;-79
2021/12/16 04:14:50;;;;;;;33.63;11.55;;;5.50;99.90;;;;;;5033403;28;20439;-81
2021/12/16 04:17:18;;;;;;;31.63;12.18;;;5.40;99.90;;;;;;5033213;28;20310;-79
2021/12/16 04:19:44;;;;;;;37.03;11.93;;;5.40;99.90;;;;;;5049932;28;20061;-79
2021/12/16 04:22:18;;;;;;;28.23;11.90;;;5.40;99.90;;;;;;5032989;28;20041;-81
2021/12/16 04:24:46;;;;;;;37.20;12.85;;;5.40;99.90;;;;;;5016797;28;20037;-81
2021/12/16 04:27:13;;;;;;;28.58;13.23;;;5.40;99.90;;;;;;5033045;28;20041;-79
2021/12/16 04:29:39;;;;;;;36.33;14.43;;;5.30;99.90;;;;;;5048838;28;20056;-81
2021/12/16 04:32:07;;;;;;;54.80;17.15;;;5.40;99.90;;;;;;5032826;28;20069;-81
2021/12/16 04:34:33;;;;;;;41.53;17.55;;;5.30;99.90;;;;;;5049356;28;20053;-81
2021/12/16 04:37:00;;;;;;;42.75;17.63;;;5.30;99.90;;;;;;5032714;28;20419;-80
2021/12/16 04:39:29;;;;;;;48.55;17.33;;;5.30;99.90;;;;;;5049626;28;20057;-81
2021/12/16 04:41:55;;;;;;;53.65;16.88;;;5.30;99.90;;;;;;5032171;28;20076;-81
2021/12/16 04:44:24;;;;;;;59.42;17.17;;;5.20;99.90;;;;;;5049206;28;20037;-79
2021/12/16 04:46:50;;;;;;;55.63;18.30;;;5.00;99.90;;;;;;5032434;28;20071;-81
2021/12/16 04:49:16;;;;;;;57.90;18.75;;;4.90;99.90;;;;;;5015924;28;20049;-81
2021/12/16 04:51:45;;;;;;;55.80;18.45;;;4.80;99.90;;;;;;5015916;28;20064;-81
2021/12/16 04:54:12;;;;;;;51.00;18.27;;;4.70;99.90;;;;;;5032623;28;20041;-81
2021/12/16 04:56:39;;;;;;;57.22;20.05;;;4.60;99.90;;;;;;5048675;28;20045;-80
2021/12/16 04:59:08;;;;;;;57.28;21.20;;;4.60;99.90;;;;;;5049004;28;20052;-81
2021/12/16 05:01:39;;;;;;;73.55;22.02;;;4.70;99.90;;;;;;5016132;28;20042;-81
2021/12/16 05:04:05;;;;;;;90.53;24.02;;;4.80;99.90;;;;;;5031835;28;20491;-81
2021/12/16 05:06:31;;;;;;;85.40;24.17;;;4.80;99.90;;;;;;5048424;28;20095;-81
2021/12/16 05:08:58;;;;;;;110.22;24.30;;;4.80;99.90;;;;;;5032014;28;20408;-79
2021/12/16 05:11:24;;;;;;;148.65;26.52;;;4.80;99.90;;;;;;5032533;28;20049;-79
2021/12/16 05:13:50;;;;;;;313.80;34.97;;;4.70;99.90;;;;;;5031888;28;20182;-80
2021/12/16 05:16:15;;;;;;;591.67;44.55;;;4.60;99.90;;;;;;5015404;28;20049;-81
2021/12/16 05:18:42;;;;;;;541.00;39.20;;;4.50;99.90;;;;;;5031943;28;20042;-81
2021/12/16 05:21:37;;;;;;;422.15;34.42;;;4.40;99.90;;;;;;5015373;28;20115;-81
2021/12/16 05:27:03;;;;;;;159.75;26.80;;;4.40;99.90;;;;;;5007399;28;20049;-80
2021/12/16 05:29:29;;;;;;;141.57;27.65;;;4.40;99.90;;;;;;5015356;28;20056;-82
2021/12/16 05:31:55;;;;;;;98.78;24.15;;;4.30;99.90;;;;;;5015173;28;20057;-81
2021/12/16 05:34:22;;;;;;;101.57;25.52;;;4.20;99.90;;;;;;5031802;28;20073;-81
2021/12/16 05:36:48;;;;;;;112.35;27.55;;;4.20;99.90;;;;;;4998800;28;20053;-81
2021/12/16 05:39:15;;;;;;;165.48;31.38;;;4.10;99.90;;;;;;5015035;28;20463;-81
2021/12/16 05:41:42;;;;;;;146.18;29.73;;;4.10;99.90;;;;;;5031777;28;20377;-81
2021/12/16 05:44:08;;;;;;;80.72;26.63;;;4.10;99.90;;;;;;4998441;28;20049;-81
2021/12/16 05:46:34;;;;;;;101.13;28.67;;;4.20;99.90;;;;;;5031476;28;20068;-80
2021/12/16 05:49:02;;;;;;;88.13;30.00;;;4.30;99.90;;;;;;5031691;28;20132;-80
2021/12/16 05:51:31;;;;;;;96.68;29.70;;;4.50;99.90;;;;;;5031391;28;20124;-81
2021/12/16 05:54:00;;;;;;;112.60;32.28;;;4.60;99.90;;;;;;5047591;28;20071;-81
2021/12/16 05:56:26;;;;;;;124.15;32.50;;;4.60;99.90;;;;;;5031735;28;20410;-81
2021/12/16 05:58:52;;;;;;;114.32;31.13;;;4.60;99.90;;;;;;5014497;28;20495;-79
2021/12/16 06:01:21;;;;;;;88.80;29.25;;;4.60;99.90;;;;;;4998917;28;20048;-81
2021/12/16 06:03:50;;;;;;;134.75;34.47;;;4.80;99.90;;;;;;5047982;28;20491;-79
2021/12/16 06:06:16;;;;;;;101.80;30.98;;;4.70;99.90;;;;;;5047760;28;20049;-81
2021/12/16 06:08:43;;;;;;;64.32;25.67;;;4.70;99.90;;;;;;5030962;28;20088;-81
2021/12/16 06:13:41;;;;;;;82.30;29.58;;;5.00;99.90;;;;;;5047562;28;20115;-81
2021/12/16 06:29:30;;;;;;;76.05;24.77;;;4.30;99.90;;;;;;5030648;28;20106;-81
2021/12/16 06:31:57;;;;;;;78.60;25.70;;;4.30;99.90;;;;;;5014557;28;20635;-79
2021/12/16 06:34:23;;;;;;;79.38;26.02;;;4.40;99.90;;;;;;4997641;28;20484;-82
2021/12/16 06:36:49;;;;;;;94.47;27.65;;;4.50;99.90;;;;;;5016269;28;20045;-81
2021/12/16 06:39:15;;;;;;;91.57;28.98;;;4.60;99.90;;;;;;5017975;28;20083;-79
2021/12/16 06:41:41;;;;;;;89.85;29.08;;;4.80;99.90;;;;;;5035397;28;20045;-79
2021/12/16 06:44:18;;;;;;;100.13;30.08;;;4.80;99.90;;;;;;5034437;28;20128;-81
2021/12/16 06:46:45;;;;;;;129.23;32.97;;;5.00;99.90;;;;;;5018462;28;20041;-79
2021/12/16 06:49:14;;;;;;;130.88;31.13;;;4.80;99.90;;;;;;5034928;28;20128;-81
2021/12/16 06:51:51;;;;;;;166.82;34.63;;;4.70;99.90;;;;;;5034446;28;20041;-81
2021/12/16 06:54:26;;;;;;;113.00;29.77;;;4.70;99.90;;;;;;5031404;28;20393;-81
2021/12/16 06:59:47;;;;;;;122.88;29.38;;;4.50;99.90;;;;;;5018777;28;20045;-80
2021/12/16 07:02:38;;;;;;;480.15;47.95;;;4.70;99.90;;;;;;5034074;28;20056;-79
2021/12/16 07:05:00;;;;;;;419.38;44.78;;;4.60;99.90;;;;;;5033851;28;20061;-80
2021/12/16 07:07:26;;;;;;;249.60;37.13;;;4.50;99.90;;;;;;5017751;28;20168;-82
2021/12/16 07:09:52;;;;;;;334.98;45.65;;;4.50;99.90;;;;;;5034376;28;20099;-81
2021/12/16 07:12:24;;;;;;;134.25;31.52;;;4.30;99.90;;;;;;5034200;28;20408;-82
2021/12/16 07:14:50;;;;;;;188.75;32.58;;;4.30;99.90;;;;;;5015084;28;20049;-79
2021/12/16 07:17:17;;;;;;;220.20;37.47;;;4.30;99.90;;;;;;5007954;28;20480;-79
2021/12/16 07:19:44;;;;;;;239.27;40.85;;;4.40;99.90;;;;;;5051149;28;20400;-81
2021/12/16 07:22:12;;;;;;;351.15;45.13;;;4.40;99.90;;;;;;5017526;28;20045;-81
2021/12/16 07:24:38;;;;;;;175.70;37.42;;;4.50;99.90;;;;;;4984877;28;20526;-81
2021/12/16 07:27:06;;;;;;;154.70;36.92;;;4.60;99.90;;;;;;5017691;28;20088;-79
2021/12/16 07:29:32;;;;;;;136.57;36.55;;;4.70;99.90;;;;;;5033701;28;20053;-81
2021/12/16 07:32:01;;;;;;;123.32;36.03;;;4.90;99.90;;;;;;5050663;28;20124;-81
2021/12/16 07:34:28;;;;;;;99.93;32.17;;;4.90;99.90;;;;;;5016589;28;20045;-81
2021/12/16 07:36:54;;;;;;;133.20;36.40;;;4.90;99.90;;;;;;5033456;28;20049;-79
2021/12/16 07:39:28;;;;;;;140.65;37.63;;;4.90;99.90;;;;;;5000466;28;20484;-81
2021/12/16 07:41:55;;;;;;;214.98;43.25;;;5.00;99.90;;;;;;5018296;28;20603;-81
2021/12/16 07:44:21;;;;;;;182.45;37.00;;;4.90;99.90;;;;;;5033789;28;20061;-79
2021/12/16 07:46:50;;;;;;;198.93;38.17;;;4.90;99.90;;;;;;5033345;28;20033;-79
2021/12/16 07:49:20;;;;;;;226.88;41.42;;;4.90;99.90;;;;;;5033582;28;20049;-81
2021/12/16 07:51:46;;;;;;;124.55;32.83;;;4.80;99.90;;;;;;5017360;28;20053;-79
2021/12/16 07:54:14;;;;;;;106.00;30.92;;;4.80;99.90;;;;;;5000254;28;20064;-81
2021/12/16 07:56:41;;;;;;;128.35;32.55;;;4.70;99.90;;;;;;5021101;28;20392;-79
2021/12/16 07:59:08;;;;;;;147.25;35.30;;;4.60;99.90;;;;;;5017334;28;20046;-79
2021/12/16 08:01:36;;;;;;;133.27;33.60;;;4.60;99.90;;;;;;5033596;28;20049;-81
2021/12/16 08:04:02;;;;;;;133.70;33.20;;;4.60;99.90;;;;;;5016792;28;20132;-79
2021/12/16 08:06:31;;;;;;;109.82;32.38;;;4.60;99.90;;;;;;5017729;28;20437;-79
2021/12/16 08:09:04;;;;;;;120.38;34.20;;;4.60;99.90;;;;;;5016204;28;20041;-79
2021/12/16 08:11:33;;;;;;;139.00;37.25;;;4.60;99.90;;;;;;5050028;28;20041;-81
2021/12/16 08:13:59;;;;;;;132.25;35.95;;;4.60;99.90;;;;;;5033394;28;20049;-79
2021/12/16 08:16:25;;;;;;;105.78;32.53;;;4.60;99.90;;;;;;5016921;28;20520;-80
2021/12/16 08:18:53;;;;;;;125.93;35.47;;;4.60;99.90;;;;;;5033129;28;20037;-79
2021/12/16 08:21:21;;;;;;;129.07;37.15;;;4.70;99.90;;;;;;4999917;28;20053;-81
2021/12/16 08:23:47;;;;;;;126.18;36.45;;;4.90;99.90;;;;;;5049664;28;20434;-79
2021/12/16 08:26:15;;;;;;;144.90;38.45;;;5.00;99.90;;;;;;5032568;28;20424;-79
2021/12/16 08:28:43;;;;;;;151.25;42.78;;;5.10;99.90;;;;;;5033048;28;20538;-79
2021/12/16 08:31:09;;;;;;;185.07;44.13;;;5.30;99.90;;;;;;5032478;28;20053;-81
2021/12/16 08:33:35;;;;;;;113.70;37.30;;;5.50;99.90;;;;;;5033150;28;20095;-82
2021/12/16 08:36:01;;;;;;;135.25;38.17;;;5.50;99.90;;;;;;5032393;28;20052;-81
2021/12/16 08:38:27;;;;;;;96.60;35.08;;;5.40;99.90;;;;;;5015326;28;20037;-79
2021/12/16 08:40:59;;;;;;;137.05;40.28;;;5.40;99.90;;;;;;5019707;28;20041;-82
2021/12/16 08:43:25;;;;;;;148.05;39.05;;;5.40;99.90;;;;;;5033257;28;20400;-80
2021/12/16 08:45:51;;;;;;;125.45;38.22;;;5.40;99.90;;;;;;5049660;28;20053;-81
2021/12/16 08:48:17;;;;;;;142.98;40.50;;;5.40;99.90;;;;;;5000239;28;20095;-81
2021/12/16 08:50:50;;;;;;;199.60;46.10;;;5.40;99.90;;;;;;5000334;28;20037;-79
2021/12/16 08:53:20;;;;;;;187.13;45.85;;;5.40;99.90;;;;;;5032935;28;20041;-79
2021/12/16 08:55:47;;;;;;;249.77;50.83;;;5.50;99.90;;;;;;5049809;28;20072;-81
2021/12/16 08:58:14;;;;;;;133.95;45.80;;;5.60;99.90;;;;;;5032726;28;20476;-82
2021/12/16 09:00:46;;;;;;;147.40;54.38;;;5.60;99.90;;;;;;5032417;28;20049;-79
2021/12/16 09:03:12;;;;;;;139.80;42.35;;;5.60;99.90;;;;;;5032688;28;20095;-80
2021/12/16 09:05:39;;;;;;;133.00;38.30;;;5.60;99.90;;;;;;5049326;28;20045;-79
2021/12/16 09:08:05;;;;;;;140.93;39.10;;;5.60;99.90;;;;;;5032685;28;20049;-81
2021/12/16 09:10:33;;;;;;;117.38;36.40;;;5.60;99.90;;;;;;5032028;28;20071;-82
2021/12/16 09:13:03;;;;;;;118.35;33.75;;;5.60;99.90;;;;;;5015603;28;20053;-81
2021/12/16 09:15:35;;;;;;;125.93;36.15;;;5.60;99.90;;;;;;5048647;28;20527;-81
2021/12/16 09:18:03;;;;;;;126.03;35.90;;;5.60;99.90;;;;;;5031532;28;20046;-82
2021/12/16 09:20:30;;;;;;;146.23;37.80;;;5.60;99.90;;;;;;5048140;28;20369;-82
2021/12/16 09:22:57;;;;;;;120.05;35.25;;;5.60;99.90;;;;;;5015395;28;20045;-82
2021/12/16 09:25:23;;;;;;;170.73;41.90;;;5.60;99.90;;;;;;5031560;28;21272;-82
2021/12/16 09:27:49;;;;;;;219.90;46.58;;;5.70;99.90;;;;;;5031142;28;20128;-80
2021/12/16 09:30:19;;;;;;;347.92;55.78;;;5.70;99.90;;;;;;5047723;28;20056;-82
2021/12/16 09:32:46;;;;;;;350.65;53.53;;;5.90;99.90;;;;;;5031865;28;20042;-82
2021/12/16 09:35:13;;;;;;;347.73;57.20;;;6.10;99.90;;;;;;5014440;28;20045;-81
2021/12/16 09:37:39;;;;;;;514.15;70.93;;;6.20;99.90;;;;;;5031798;28;20038;-80
2021/12/16 09:40:12;;;;;;;459.70;68.43;;;6.30;99.90;;;;;;5031007;28;20049;-80
2021/12/16 09:42:39;;;;;;;819.63;108.70;;;6.40;99.90;;;;;;5031806;28;20046;-82
2021/12/16 09:45:08;;;;;;;663.00;97.63;;;6.50;99.90;;;;;;5031150;28;20045;-81
2021/12/16 09:47:38;;;;;;;568.53;84.82;;;6.50;99.90;;;;;;5014734;28;20056;-79
2021/12/16 09:50:08;;;;;;;585.47;67.88;;;6.60;99.90;;;;;;5031849;28;20051;-80
2021/12/16 09:52:34;;;;;;;507.63;58.47;;;6.60;99.90;;;;;;5025651;28;20088;-81
2021/12/16 09:55:01;;;;;;;458.25;54.47;;;6.60;99.90;;;;;;5047904;28;20124;-80
2021/12/16 09:57:28;;;;;;;420.60;51.90;;;6.70;99.90;;;;;;5031387;28;20045;-80
2021/12/16 09:59:55;;;;;;;396.75;46.42;;;6.60;99.90;;;;;;5031696;28;20049;-82
2021/12/16 10:02:22;;;;;;;428.90;46.42;;;6.70;99.90;;;;;;5014952;28;20065;-82
2021/12/16 10:04:48;;;;;;;388.85;52.53;;;6.90;99.90;;;;;;5031336;28;20041;-81
2021/12/16 10:07:17;;;;;;;503.30;58.75;;;6.80;99.90;;;;;;5015129;28;20492;-80
2021/12/16 10:09:46;;;;;;;526.65;54.38;;;6.80;99.90;;;;;;5014580;28;20042;-82
2021/12/16 10:12:17;;;;;;;530.55;57.97;;;6.80;99.90;;;;;;5015191;28;20068;-80
2021/12/16 10:17:24;;;;;;;479.33;48.58;;;6.80;99.90;;;;;;5048253;28;20133;-82
2021/12/16 10:19:52;;;;;;;442.52;46.33;;;6.90;99.90;;;;;;5000788;28;20045;-82
2021/12/16 10:22:32;;;;;;;296.35;33.35;;;6.90;99.90;;;;;;5048053;28;20095;-80
2021/12/16 10:25:26;;;;;;;458.13;44.70;;;6.90;99.90;;;;;;5046733;28;20048;-79
2021/12/16 10:27:56;;;;;;;494.00;46.22;;;7.00;99.90;;;;;;5031032;28;20084;-82
2021/12/16 10:30:23;;;;;;;441.65;45.33;;;7.00;99.90;;;;;;5030097;28;20103;-81
2021/12/16 10:32:50;;;;;;;325.50;36.08;;;7.10;99.90;;;;;;5030568;28;20045;-82
2021/12/16 10:35:31;;;;;;;399.05;40.97;;;7.10;99.90;;;;;;5031551;28;20056;-82
2021/12/16 10:38:00;;;;;;;451.20;44.72;;;7.10;99.90;;;;;;5031196;28;20152;-80
2021/12/16 10:40:34;;;;;;;310.40;34.03;;;7.10;99.90;;;;;;5031322;28;20041;-80
2021/12/16 10:43:23;;;;;;;429.77;46.40;;;7.10;99.90;;;;;;5031329;28;20120;-82
2021/12/16 10:45:58;;;;;;;406.25;44.63;;;7.20;99.90;;;;;;5030923;28;20049;-82
2021/12/16 10:48:32;;;;;;;422.65;43.40;;;7.10;99.90;;;;;;5031603;28;20053;-79
2021/12/16 10:51:19;;;;;;;254.13;33.25;;;7.20;99.90;;;;;;5031402;28;20049;-81
2021/12/16 10:53:47;;;;;;;269.90;34.60;;;7.20;99.90;;;;;;5031517;28;20089;-80
2021/12/16 10:56:15;;;;;;;318.90;33.50;;;7.20;99.90;;;;;;5015115;28;20045;-82
2021/12/16 10:59:07;;;;;;;448.73;44.80;;;7.30;99.90;;;;;;5015162;28;20100;-80
2021/12/16 11:01:38;;;;;;;289.88;34.78;;;7.30;99.90;;;;;;5031574;28;20570;-82
2021/12/16 11:04:11;;;;;;;353.40;41.85;;;7.40;99.90;;;;;;5031080;28;20073;-80
2021/12/16 11:06:58;;;;;;;309.50;36.35;;;7.50;99.90;;;;;;5015004;28;20045;-81
2021/12/16 11:09:47;;;;;;;155.77;23.50;;;7.40;99.90;;;;;;5014679;28;20046;-82
2021/12/16 11:12:30;;;;;;;277.17;29.88;;;7.40;99.90;;;;;;5014136;28;20069;-82
2021/12/16 11:15:11;;;;;;;438.20;40.38;;;7.50;99.90;;;;;;5031160;28;20042;-81
2021/12/16 11:17:43;;;;;;;290.42;32.97;;;7.50;99.90;;;;;;5031240;28;20431;-82
2021/12/16 11:20:23;;;;;;;272.90;31.73;;;7.60;99.90;;;;;;5031327;28;20392;-82
2021/12/16 11:22:53;;;;;;;262.38;28.67;;;7.50;99.90;;;;;;5032753;28;20049;-79
2021/12/16 11:25:32;;;;;;;381.63;38.65;;;7.50;99.90;;;;;;5018143;28;20041;-81
2021/12/16 11:28:19;;;;;;;276.77;31.80;;;7.50;99.90;;;;;;5018056;28;20044;-80
2021/12/16 11:31:05;;;;;;;412.05;40.70;;;7.60;99.90;;;;;;5034410;28;20054;-80
2021/12/16 11:33:34;;;;;;;277.92;33.97;;;7.60;99.90;;;;;;5018255;28;20038;-80
2021/12/16 11:36:23;;;;;;;304.60;34.05;;;7.70;99.90;;;;;;5034426;28;20051;-79
2021/12/16 11:39:02;;;;;;;181.82;24.85;;;7.70;99.90;;;;;;5017752;28;20153;-79
2021/12/16 11:41:47;;;;;;;166.82;25.50;;;7.80;99.90;;;;;;5034421;28;20045;-80
2021/12/16 11:44:28;;;;;;;236.02;27.38;;;7.70;99.90;;;;;;5034452;28;20171;-80
2021/12/16 11:47:04;;;;;;;325.98;35.08;;;7.80;99.90;;;;;;5034301;28;20045;-80
2021/12/16 11:49:43;;;;;;;300.30;33.28;;;7.80;99.90;;;;;;5034444;28;20349;-81
2021/12/16 11:52:18;;;;;;;284.75;35.92;;;7.90;99.90;;;;;;5034238;28;20046;-83
2021/12/16 11:54:46;;;;;;;192.93;24.13;;;7.90;99.90;;;;;;5034050;28;20045;-83
2021/12/16 11:57:24;;;;;;;487.13;41.88;;;7.90;99.90;;;;;;5034350;28;20064;-82
2021/12/16 12:00:04;;;;;;;237.48;29.25;;;7.80;99.90;;;;;;5034417;28;20407;-82
2021/12/16 12:02:34;;;;;;;323.92;36.17;;;7.90;99.90;;;;;;5017440;28;20049;-82
2021/12/16 12:05:17;;;;;;;322.23;35.33;;;8.00;99.90;;;;;;5034115;28;20042;-79
2021/12/16 12:07:47;;;;;;;208.15;29.77;;;8.00;99.90;;;;;;5017330;28;20157;-82
2021/12/16 12:10:15;;;;;;;152.65;23.88;;;8.00;99.90;;;;;;5033711;28;20052;-82
2021/12/16 12:12:46;;;;;;;147.95;25.58;;;8.00;99.90;;;;;;5033974;28;20487;-80
2021/12/16 12:15:15;;;;;;;151.15;25.35;;;8.00;99.90;;;;;;5033654;28;20414;-79
2021/12/16 12:17:52;;;;;;;208.40;26.33;;;8.00;99.90;;;;;;5033818;28;20056;-79
2021/12/16 12:20:19;;;;;;;262.67;24.75;;;8.00;99.90;;;;;;5033727;28;20067;-80
2021/12/16 12:22:50;;;;;;;271.88;26.45;;;8.00;99.90;;;;;;5017254;28;20046;-79
2021/12/16 12:25:17;;;;;;;273.50;27.48;;;8.00;99.90;;;;;;5017360;28;20451;-80
2021/12/16 12:27:43;;;;;;;234.05;29.63;;;8.00;99.90;;;;;;5016991;28;20176;-80
2021/12/16 12:30:09;;;;;;;277.90;30.38;;;8.10;99.90;;;;;;5016531;28;20054;-80
2021/12/16 12:32:39;;;;;;;180.60;25.00;;;8.00;99.90;;;;;;5032928;28;20049;-82
2021/12/16 12:35:21;;;;;;;220.65;30.48;;;8.10;99.90;;;;;;5016696;28;20551;-79
2021/12/16 12:37:51;;;;;;;217.88;26.00;;;8.10;99.90;;;;;;5016074;28;20038;-80
2021/12/16 12:40:40;;;;;;;214.30;28.08;;;8.10;99.90;;;;;;5049682;28;20041;-82
2021/12/16 12:43:09;;;;;;;254.07;29.33;;;8.10;99.90;;;;;;5032886;28;20128;-82
2021/12/16 12:45:41;;;;;;;264.80;30.00;;;8.10;99.90;;;;;;5032938;28;20120;-80
2021/12/16 12:48:15;;;;;;;204.15;21.90;;;8.20;99.90;;;;;;5050069;28;20050;-82
2021/12/16 12:50:43;;;;;;;149.10;19.83;;;8.30;99.90;;;;;;5033060;28;20492;-80
2021/12/16 12:53:19;;;;;;;347.02;35.95;;;8.30;99.90;;;;;;5016761;28;20049;-80
2021/12/16 12:55:46;;;;;;;131.10;19.58;;;8.30;99.90;;;;;;5048543;28;20043;-79
2021/12/16 12:58:16;;;;;;;312.08;34.78;;;8.30;99.90;;;;;;4999657;28;20325;-82
2021/12/16 13:00:45;;;;;;;163.38;25.85;;;8.30;99.90;;;;;;5049372;28;20049;-82
2021/12/16 13:03:17;;;;;;;252.77;33.50;;;8.40;99.90;;;;;;5049041;28;20053;-82
2021/12/16 13:05:52;;;;;;;175.60;27.88;;;8.40;99.90;;;;;;5032798;28;20041;-82
2021/12/16 13:08:28;;;;;;;186.45;29.45;;;8.40;99.90;;;;;;5032197;28;20369;-79
2021/12/16 13:10:59;;;;;;;174.80;28.90;;;8.40;99.90;;;;;;5032116;28;20064;-82
2021/12/16 13:16:11;;;;;;;155.85;23.60;;;8.40;99.90;;;;;;5031311;28;20123;-82
2021/12/16 13:24:44;;;;;;;220.85;32.00;;;8.40;99.90;;;;;;5029334;28;20060;-82
2021/12/16 13:30:05;;;;;;;133.40;24.70;;;8.50;99.90;;;;;;5031413;28;20050;-82
2021/12/16 13:32:42;;;;;;;149.57;26.73;;;8.50;99.90;;;;;;5032443;28;20561;-79
2021/12/16 13:37:54;;;;;;;76.00;15.73;;;8.40;99.90;;;;;;5031113;28;20041;-82
2021/12/16 13:40:27;;;;;;;84.68;19.20;;;8.50;99.90;;;;;;5031151;28;20053;-79
2021/12/16 13:43:05;;;;;;;50.97;12.88;;;8.40;99.90;;;;;;5015383;28;20461;-82
2021/12/16 13:45:36;;;;;;;44.72;9.82;;;8.40;99.90;;;;;;5030792;28;20403;-79
2021/12/16 14:07:59;;;;;;;100.75;17.13;;;8.30;99.90;;;;;;5046081;28;20537;-79
2021/12/16 14:10:35;;;;;;;90.00;16.55;;;8.30;99.90;;;;;;5029962;28;20049;-79
2021/12/16 14:17:10;;;;;;;55.88;12.15;;;8.30;99.90;;;;;;5043022;28;20053;-79
2021/12/16 14:42:31;;;;;;;189.68;22.10;;;8.10;99.90;;;;;;4998026;28;20042;-82
2021/12/16 14:45:18;;;;;;;200.35;23.73;;;8.10;99.90;;;;;;5030275;28;20041;-82
2021/12/16 14:50:11;;;;;;;113.82;21.80;;;8.10;99.90;;;;;;5029794;28;20079;-79
2021/12/16 14:52:38;;;;;;;124.97;23.55;;;8.00;99.90;;;;;;5013565;28;20107;-79
2021/12/16 14:55:10;;;;;;;147.63;21.58;;;8.00;99.90;;;;;;4997163;28;20132;-79
2021/12/16 14:57:45;;;;;;;190.10;25.00;;;8.00;99.90;;;;;;5030935;28;20077;-79
2021/12/16 15:00:28;;;;;;;158.10;22.15;;;8.00;99.90;;;;;;5033485;28;20670;-82
2021/12/16 15:03:08;;;;;;;149.95;22.08;;;8.00;99.90;;;;;;5033501;28;20458;-79
2021/12/16 15:05:43;;;;;;;287.15;30.08;;;8.00;99.90;;;;;;5033753;28;20045;-79
2021/12/16 15:08:26;;;;;;;232.82;31.80;;;8.00;99.90;;;;;;5033312;28;20092;-79
2021/12/16 15:10:54;;;;;;;289.90;29.85;;;8.00;99.90;;;;;;5034040;28;20049;-82
2021/12/16 15:13:27;;;;;;;230.63;29.10;;;8.00;99.90;;;;;;5017988;28;20401;-82
2021/12/16 15:40:35;;;;;;;366.20;34.70;;;8.00;99.90;;;;;;5034841;28;20385;-82
2021/12/16 15:43:04;;;;;;;227.50;28.60;;;8.00;99.90;;;;;;5016394;28;20037;-80
2021/12/16 15:45:46;;;;;;;282.92;33.67;;;8.00;99.90;;;;;;5016150;28;20073;-79
2021/12/16 15:48:15;;;;;;;432.00;39.17;;;8.00;99.90;;;;;;5049381;28;20041;-79
2021/12/16 15:51:00;;;;;;;506.02;39.97;;;8.20;99.90;;;;;;5034112;28;20484;-82
2021/12/16 15:53:42;;;;;;;372.48;38.08;;;8.00;99.90;;;;;;5018101;28;20492;-82
2021/12/16 15:56:12;;;;;;;438.10;38.97;;;8.00;99.90;;;;;;5034082;28;20488;-79
2021/12/16 15:58:45;;;;;;;431.02;41.83;;;8.00;99.90;;;;;;5033294;28;20107;-79
2021/12/16 16:01:24;;;;;;;577.45;49.80;;;8.00;99.90;;;;;;5023555;28;20037;-82
2021/12/16 16:03:50;;;;;;;626.55;51.85;;;8.00;99.90;;;;;;5034048;28;20439;-82
2021/12/16 16:06:17;;;;;;;505.45;46.15;;;8.00;99.90;;;;;;5017247;28;20148;-79
2021/12/16 16:08:48;;;;;;;572.40;47.58;;;7.90;99.90;;;;;;5016458;28;20049;-79
2021/12/16 16:11:17;;;;;;;539.35;49.92;;;8.00;99.90;;;;;;5034091;28;20033;-79
2021/12/16 16:13:49;;;;;;;624.88;53.78;;;8.00;99.90;;;;;;5017005;28;20496;-79
2021/12/16 16:16:19;;;;;;;553.88;49.58;;;8.00;99.90;;;;;;5032850;28;20041;-82
2021/12/16 16:18:55;;;;;;;615.15;56.10;;;8.00;99.90;;;;;;5016565;28;20111;-82
2021/12/16 16:21:34;;;;;;;667.10;57.05;;;8.00;99.90;;;;;;5016744;28;20041;-79
2021/12/16 16:24:07;;;;;;;583.35;52.50;;;8.00;99.90;;;;;;5033765;28;20053;-79
2021/12/16 16:26:34;;;;;;;645.78;54.33;;;8.00;99.90;;;;;;5033273;28;20041;-82
2021/12/16 16:29:04;;;;;;;516.72;49.92;;;8.00;99.90;;;;;;5032938;28;20065;-81
2021/12/16 16:31:32;;;;;;;645.58;58.85;;;8.00;99.90;;;;;;5033322;28;20122;-80
2021/12/16 16:33:59;;;;;;;646.53;55.13;;;8.00;99.90;;;;;;5032363;28;20400;-79
2021/12/16 16:36:28;;;;;;;521.60;48.40;;;8.10;99.90;;;;;;5049744;28;20056;-79
2021/12/16 16:39:07;;;;;;;561.35;54.25;;;8.10;99.90;;;;;;5031920;28;20041;-79
2021/12/16 16:41:45;;;;;;;509.90;49.63;;;8.10;99.90;;;;;;5031795;28;20045;-82
2021/12/16 16:44:15;;;;;;;738.15;60.42;;;8.10;99.90;;;;;;5014699;28;20038;-82
2021/12/16 16:46:57;;;;;;;782.38;61.38;;;8.10;99.90;;;;;;5032449;28;20107;-80
2021/12/16 16:49:49;;;;;;;644.65;54.10;;;8.00;99.90;;;;;;5032503;28;20049;-79
2021/12/16 16:52:22;;;;;;;577.53;47.15;;;8.10;99.90;;;;;;5016442;28;20048;-82